Time;durP1;ratioP1;P1;durP2;ratioP2;P2;SDS_P1;SDS_P2;PMS_P1;PMS_P2;Temp;Humidity;BMP_temperature;BMP_pressure;BME280_temperature;BME280_humidity;BME280_pressure;Samples;Min_cycle;Max_cycle;Signal;HPM_P1;HPM_P2
2023/01/05 00:00:06;;;;;;;14.95;5.30;;;;;;;11.96;100.00;98941.13;5079962;28;20048;-86
2023/01/05 00:02:31;;;;;;;17.05;5.30;;;;;;;11.74;100.00;98938.75;5083472;28;20025;-86
2023/01/05 00:05:01;;;;;;;14.70;5.47;;;;;;;12.02;100.00;98937.72;5076748;28;20039;-85
2023/01/05 00:07:26;;;;;;;13.38;5.20;;;;;;;12.09;100.00;98967.44;5082230;28;20026;-86
2023/01/05 00:09:53;;;;;;;11.48;4.80;;;;;;;12.18;100.00;98964.59;5077679;28;20024;-84
2023/01/05 00:23:18;;;;;;;7.97;4.38;;;;;;;11.80;100.00;98958.16;5084809;28;20036;-84
2023/01/05 00:25:44;;;;;;;11.93;4.03;;;;;;;11.47;100.00;98965.06;5083078;28;20035;-83
2023/01/05 00:28:09;;;;;;;11.90;3.40;;;;;;;11.48;100.00;98950.09;5083619;28;20477;-84
2023/01/05 00:30:46;;;;;;;13.52;4.13;;;;;;;11.71;100.00;98949.69;5082329;28;20028;-85
2023/01/05 00:33:14;;;;;;;17.58;3.42;;;;;;;11.55;100.00;98962.22;5084905;28;20051;-86
2023/01/05 00:35:40;;;;;;;13.98;3.58;;;;;;;11.61;100.00;98950.09;5078557;28;20016;-86
2023/01/05 00:38:06;;;;;;;9.95;2.65;;;;;;;11.15;100.00;98951.69;5080781;28;20027;-85
2023/01/05 00:40:33;;;;;;;13.50;2.80;;;;;;;11.71;100.00;98968.09;5083253;28;20035;-85
2023/01/05 00:42:59;;;;;;;15.13;3.38;;;;;;;11.24;100.00;98971.53;5078122;28;20028;-83
2023/01/05 00:45:25;;;;;;;11.32;2.42;;;;;;;11.52;100.00;98957.38;5083796;28;20024;-84
2023/01/05 00:47:53;;;;;;;7.75;2.45;;;;;;;11.81;100.00;98971.13;5081204;28;20051;-85
2023/01/05 00:50:20;;;;;;;8.52;2.70;;;;;;;11.52;100.00;98973.16;5074664;28;20032;-85
2023/01/05 00:52:46;;;;;;;13.30;3.10;;;;;;;11.44;100.00;98952.34;5087689;28;20020;-86
2023/01/05 00:55:15;;;;;;;8.98;2.30;;;;;;;11.46;100.00;98952.94;5083306;28;20027;-87
2023/01/05 00:57:40;;;;;;;10.23;2.95;;;;;;;11.29;100.00;98966.47;5084580;28;20033;-86
2023/01/05 01:00:10;;;;;;;14.68;3.20;;;;;;;11.44;100.00;98965.47;5087961;28;20105;-87
2023/01/05 01:02:35;;;;;;;14.90;2.90;;;;;;;11.62;100.00;98956.97;5082168;28;20082;-86
2023/01/05 01:05:01;;;;;;;13.85;2.85;;;;;;;11.65;100.00;98972.31;5082016;28;20752;-85
2023/01/05 01:07:26;;;;;;;17.02;3.63;;;;;;;11.57;100.00;98967.28;5085705;28;20033;-85
2023/01/05 01:09:52;;;;;;;9.05;2.97;;;;;;;11.39;100.00;98983.63;5079275;28;20445;-85
2023/01/05 01:12:18;;;;;;;13.05;3.03;;;;;;;11.31;100.00;98954.94;5080964;28;20031;-87
2023/01/05 01:14:48;;;;;;;13.10;2.75;;;;;;;11.20;100.00;98980.81;5083114;28;20032;-86
2023/01/05 01:17:15;;;;;;;11.73;2.88;;;;;;;11.25;100.00;98986.28;5077550;28;20478;-85
2023/01/05 01:19:41;;;;;;;12.25;3.00;;;;;;;11.46;100.00;98973.97;5077994;28;20028;-87
2023/01/05 01:22:09;;;;;;;10.10;2.53;;;;;;;11.40;100.00;98985.28;5086131;28;20035;-85
2023/01/05 01:24:34;;;;;;;14.20;2.80;;;;;;;11.50;100.00;98980.41;5083887;28;20334;-86
2023/01/05 01:27:00;;;;;;;12.60;2.83;;;;;;;11.38;100.00;98979.41;5082873;28;20032;-86
2023/01/05 01:29:25;;;;;;;11.20;2.80;;;;;;;11.60;100.00;98985.28;5078519;28;20033;-86
2023/01/05 01:31:52;;;;;;;15.13;3.67;;;;;;;11.35;100.00;99001.66;5080886;28;20114;-86
2023/01/05 01:34:18;;;;;;;10.27;2.88;;;;;;;11.14;100.00;98986.84;5081613;28;20036;-85
2023/01/05 01:36:44;;;;;;;8.80;3.03;;;;;;;11.14;100.00;98982.41;5091338;28;20032;-86
2023/01/05 01:39:10;;;;;;;17.00;2.88;;;;;;;11.48;100.00;99005.28;5085751;28;20051;-88
2023/01/05 01:41:37;;;;;;;14.93;2.55;;;;;;;11.38;100.00;99000.41;5077164;28;20030;-86
2023/01/05 01:44:41;;;;;;;15.10;2.70;;;;;;;11.40;100.00;99003.69;5083840;28;20028;-88
2023/01/05 01:47:21;;;;;;;11.32;2.80;;;;;;;11.26;100.00;98995.78;5082970;28;20482;-87
2023/01/05 01:49:47;;;;;;;16.88;2.90;;;;;;;11.47;100.00;99001.84;5080227;28;20079;-86
2023/01/05 01:52:13;;;;;;;10.25;2.30;;;;;;;11.38;100.00;98987.28;5084120;28;20036;-86
2023/01/05 01:54:39;;;;;;;14.77;2.63;;;;;;;11.38;100.00;98987.28;5086911;28;20385;-89
2023/01/05 01:57:05;;;;;;;9.30;2.75;;;;;;;11.46;100.00;98973.97;5083437;28;20024;-85
2023/01/05 01:59:31;;;;;;;13.45;2.70;;;;;;;11.65;100.00;98982.06;5084225;28;20506;-86
2023/01/05 02:02:00;;;;;;;12.48;2.70;;;;;;;11.30;100.00;99004.06;5081021;28;20035;-88
2023/01/05 02:04:28;;;;;;;11.85;2.40;;;;;;;11.68;100.00;99010.56;5083574;28;20065;-87
2023/01/05 02:06:55;;;;;;;10.30;3.10;;;;;;;11.37;100.00;99004.88;5082853;28;20029;-87
2023/01/05 02:09:20;;;;;;;12.27;2.70;;;;;;;11.29;100.00;99005.88;5082925;28;20032;-87
2023/01/05 02:12:01;;;;;;;10.85;2.97;;;;;;;11.39;100.00;99002.03;5086006;28;20033;-88
2023/01/05 02:14:58;;;;;;;12.70;2.97;;;;;;;11.27;100.00;99018.41;5080409;28;20024;-87
2023/01/05 02:17:56;;;;;;;15.57;2.92;;;;;;;11.19;100.00;99005.44;5086316;28;20086;-87
2023/01/05 02:20:24;;;;;;;19.00;3.22;;;;;;;11.60;100.00;99010.78;5080838;28;20037;-87
2023/01/05 02:22:50;;;;;;;9.48;2.30;;;;;;;11.37;100.00;99006.69;5081828;28;20409;-87
2023/01/05 02:25:40;;;;;;;9.52;2.33;;;;;;;11.09;100.00;99015.53;5083075;28;20036;-88
2023/01/05 02:28:42;;;;;;;7.82;2.38;;;;;;;11.37;100.00;98996.19;5081912;28;20039;-86
2023/01/05 02:31:13;;;;;;;11.35;3.08;;;;;;;11.37;100.00;99017.19;5084745;28;20028;-86
2023/01/05 02:33:53;;;;;;;11.60;2.95;;;;;;;11.56;100.00;99007.72;5086309;28;20032;-86
2023/01/05 02:36:46;;;;;;;10.32;2.42;;;;;;;11.55;100.00;99035.03;5081747;28;20419;-87
2023/01/05 02:39:24;;;;;;;13.38;3.00;;;;;;;11.69;100.00;99031.41;5079579;28;20085;-86
2023/01/05 02:42:04;;;;;;;9.80;2.90;;;;;;;11.46;100.00;99037.03;5083914;28;20119;-86
2023/01/05 02:44:32;;;;;;;16.90;3.20;;;;;;;11.29;100.00;99040.03;5084765;28;20461;-87
2023/01/05 02:47:18;;;;;;;13.77;3.00;;;;;;;11.50;100.00;99043.50;5078870;28;20035;-85
2023/01/05 02:49:43;;;;;;;11.52;3.10;;;;;;;11.52;100.00;99048.59;5079717;28;20077;-86
2023/01/05 02:52:11;;;;;;;14.98;2.88;;;;;;;11.50;100.00;99042.72;5060908;28;20485;-86
2023/01/05 02:54:50;;;;;;;11.50;3.03;;;;;;;11.20;100.00;99046.50;5082909;28;20064;-86
2023/01/05 02:57:45;;;;;;;9.93;2.67;;;;;;;11.14;100.00;99055.97;5078764;28;20485;-86
2023/01/05 03:00:11;;;;;;;12.00;3.05;;;;;;;11.73;100.00;99063.34;5084325;28;20043;-88
2023/01/05 03:02:38;;;;;;;13.15;2.38;;;;;;;11.26;100.00;99063.25;5078462;28;20024;-85
2023/01/05 03:05:09;;;;;;;12.18;3.10;;;;;;;11.49;100.00;99073.44;5079628;28;20029;-85
2023/01/05 03:07:41;;;;;;;13.15;3.13;;;;;;;11.33;100.00;99079.88;5075745;28;20032;-87
2023/01/05 03:15:45;;;;;;;5.47;2.72;;;;;;;11.36;100.00;99042.69;5085233;28;20085;-87
2023/01/05 03:18:15;;;;;;;13.00;3.28;;;;;;;11.21;100.00;99071.75;5080152;28;20054;-86
2023/01/05 03:20:48;;;;;;;11.32;2.63;;;;;;;11.13;100.00;99053.53;5078716;28;20381;-86
2023/01/05 03:38:06;;;;;;;7.47;2.67;;;;;;;11.74;100.00;99070.22;5082333;28;20036;-84
2023/01/05 03:40:34;;;;;;;9.90;2.80;;;;;;;11.94;100.00;99074.69;5082844;28;20044;-85
2023/01/05 03:43:02;;;;;;;11.30;3.10;;;;;;;12.34;100.00;99073.88;5079824;28;20032;-85
2023/01/05 03:45:35;;;;;;;10.88;3.28;;;;;;;12.05;100.00;99091.72;5079912;28;20044;-85
2023/01/05 03:48:00;;;;;;;11.55;2.95;;;;;;;11.71;100.00;99075.88;5081656;28;20032;-84
2023/01/05 03:50:27;;;;;;;14.27;3.20;;;;;;;11.67;100.00;99085.19;5082121;28;22819;-86
2023/01/05 03:52:52;;;;;;;11.60;3.20;;;;;;;11.89;100.00;99077.13;5081083;28;20043;-85
2023/01/05 03:55:18;;;;;;;8.68;3.20;;;;;;;11.66;100.00;99089.63;5088183;28;20024;-85
2023/01/05 03:57:44;;;;;;;13.38;3.60;;;;;;;11.62;100.00;99085.00;5084665;28;20077;-85
2023/01/05 04:00:10;;;;;;;14.38;3.30;;;;;;;11.51;100.00;99092.44;5061778;28;20486;-86
2023/01/05 04:02:36;;;;;;;11.98;3.00;;;;;;;11.90;100.00;99089.25;5079046;28;20107;-85
2023/01/05 04:05:01;;;;;;;14.25;2.88;;;;;;;12.06;100.00;99088.88;5076940;28;20367;-85
2023/01/05 04:07:27;;;;;;;11.00;3.95;;;;;;;11.56;100.00;99100.53;5079241;28;20020;-85
2023/01/05 04:09:53;;;;;;;9.73;2.83;;;;;;;11.62;100.00;99092.88;5080400;28;20023;-85
2023/01/05 04:12:18;;;;;;;9.65;2.92;;;;;;;11.78;100.00;99087.22;5082570;28;20031;-86
2023/01/05 04:14:44;;;;;;;11.82;3.25;;;;;;;11.55;100.00;99098.13;5078306;28;20059;-86
2023/01/05 04:17:10;;;;;;;7.47;2.92;;;;;;;11.54;100.00;99115.69;5081510;28;20025;-87
2023/01/05 04:19:35;;;;;;;10.10;3.42;;;;;;;11.82;100.00;99088.44;5080325;28;20414;-87
2023/01/05 04:22:01;;;;;;;10.52;3.47;;;;;;;11.84;100.00;99106.66;5078544;28;20032;-87
2023/01/05 04:24:27;;;;;;;12.65;3.35;;;;;;;12.19;100.00;99108.31;5065496;28;20024;-87
2023/01/05 04:26:55;;;;;;;11.88;3.30;;;;;;;11.74;100.00;99107.03;5077780;28;20070;-87
2023/01/05 04:29:23;;;;;;;8.25;3.00;;;;;;;12.26;100.00;99112.53;5077235;28;20024;-87
2023/01/05 04:31:49;;;;;;;10.45;3.38;;;;;;;12.22;100.00;99108.72;5074438;28;20543;-87
2023/01/05 04:34:14;;;;;;;10.23;3.30;;;;;;;12.34;100.00;99101.00;5086558;28;20043;-87
2023/01/05 04:36:48;;;;;;;9.43;3.28;;;;;;;12.34;100.00;99100.22;5080058;28;20021;-88
2023/01/05 04:39:14;;;;;;;8.40;3.50;;;;;;;12.31;100.00;99119.84;5080123;28;20055;-87
2023/01/05 04:41:40;;;;;;;12.02;3.72;;;;;;;11.99;100.00;99109.09;5081887;28;20175;-87
2023/01/05 04:44:09;;;;;;;11.25;3.72;;;;;;;12.18;100.00;99111.94;5061750;28;20460;-87
2023/01/05 04:46:35;;;;;;;12.40;4.05;;;;;;;12.23;100.00;99101.63;5080901;28;20036;-87
2023/01/05 04:49:00;;;;;;;10.82;4.10;;;;;;;12.30;100.00;99105.06;5077745;28;20457;-87
2023/01/05 04:51:26;;;;;;;10.95;4.15;;;;;;;12.29;100.00;99103.44;5081399;28;20047;-87
2023/01/05 04:53:51;;;;;;;17.95;4.93;;;;;;;12.06;100.00;99088.88;5059042;28;20032;-86
2023/01/05 04:56:17;;;;;;;14.77;4.50;;;;;;;11.95;100.00;99102.59;5066751;28;20024;-86
2023/01/05 04:58:43;;;;;;;17.95;4.60;;;;;;;12.19;100.00;99108.31;5081505;28;20450;-86
2023/01/05 05:01:08;;;;;;;17.75;4.95;;;;;;;12.31;100.00;99119.84;5078604;28;20059;-87
2023/01/05 05:03:34;;;;;;;9.40;4.13;;;;;;;12.21;100.00;99108.94;5076693;28;20374;-86
2023/01/05 05:06:00;;;;;;;15.00;4.53;;;;;;;12.16;100.00;99098.19;5085371;28;20489;-87
2023/01/05 05:08:26;;;;;;;8.10;3.30;;;;;;;12.41;100.00;99101.81;5081386;28;20068;-87
2023/01/05 05:10:51;;;;;;;11.25;4.40;;;;;;;12.26;100.00;99109.13;5084143;28;20441;-86
2023/01/05 05:13:17;;;;;;;14.32;3.67;;;;;;;12.38;100.00;99112.75;5080644;28;20071;-87
2023/01/05 05:15:45;;;;;;;13.27;4.55;;;;;;;12.43;100.00;99104.22;5077380;28;20478;-86
2023/01/05 05:18:11;;;;;;;14.48;3.47;;;;;;;12.57;100.00;99115.53;5077341;28;20025;-87
2023/01/05 05:20:42;;;;;;;14.07;3.75;;;;;;;12.53;100.00;99109.91;5065631;28;20048;-87
2023/01/05 05:23:08;;;;;;;13.00;3.50;;;;;;;12.17;100.00;99111.16;5079490;28;20036;-88
2023/01/05 05:25:34;;;;;;;8.57;3.00;;;;;;;12.51;100.00;99116.38;5078557;28;20154;-87
2023/01/05 05:28:00;;;;;;;11.48;3.33;;;;;;;12.51;100.00;99108.47;5077530;28;20111;-87
2023/01/05 05:30:25;;;;;;;7.10;3.00;;;;;;;12.61;100.00;99116.78;5082515;28;20037;-87
2023/01/05 05:32:51;;;;;;;12.18;3.17;;;;;;;12.58;100.00;99117.19;5086308;28;20024;-86
2023/01/05 05:35:17;;;;;;;13.30;3.70;;;;;;;12.57;100.00;99110.28;5079506;28;20119;-86
2023/01/05 05:37:42;;;;;;;9.07;3.15;;;;;;;12.61;100.00;99106.25;5074356;28;20025;-86
2023/01/05 05:40:09;;;;;;;14.45;3.45;;;;;;;12.71;100.00;99111.06;5088506;28;20438;-85
2023/01/05 05:42:35;;;;;;;9.98;3.42;;;;;;;12.61;100.00;99100.97;5082613;28;20107;-86
2023/01/05 05:45:00;;;;;;;16.33;3.78;;;;;;;12.68;100.00;99101.75;5087520;28;20138;-87
2023/01/05 05:47:25;;;;;;;11.43;2.72;;;;;;;12.69;100.00;99103.38;5067316;28;20466;-87
2023/01/05 05:49:51;;;;;;;13.65;3.63;;;;;;;12.45;100.00;99096.13;5085425;28;20040;-85
2023/01/05 05:52:17;;;;;;;12.63;3.25;;;;;;;12.62;100.00;99107.03;5085655;28;20028;-85
2023/01/05 05:54:42;;;;;;;10.10;3.28;;;;;;;12.49;100.00;99103.44;5081909;28;20082;-84
2023/01/05 05:57:08;;;;;;;15.20;3.70;;;;;;;12.48;100.00;99093.91;5080468;28;20028;-83
2023/01/05 05:59:33;;;;;;;13.20;3.30;;;;;;;12.47;100.00;99100.16;5081838;28;20430;-83
2023/01/05 06:01:59;;;;;;;9.80;3.13;;;;;;;12.50;100.00;99091.88;5081667;28;20117;-84
2023/01/05 06:04:25;;;;;;;13.93;3.35;;;;;;;12.62;100.00;99097.31;5083576;28;20040;-84
2023/01/05 06:06:50;;;;;;;18.13;3.28;;;;;;;12.53;100.00;99099.38;5080963;28;20024;-83
2023/01/05 06:09:16;;;;;;;12.48;3.55;;;;;;;12.45;100.00;99083.78;5076358;28;20028;-85
2023/01/05 06:11:41;;;;;;;8.88;3.25;;;;;;;12.34;100.00;99074.69;5082210;28;20080;-84
2023/01/05 06:14:07;;;;;;;14.20;3.13;;;;;;;12.40;100.00;99096.75;5082298;28;20052;-83
2023/01/05 06:16:33;;;;;;;15.38;3.33;;;;;;;12.22;100.00;99081.59;5085657;28;20063;-83
2023/01/05 06:18:59;;;;;;;10.30;3.63;;;;;;;12.19;100.00;99095.16;5081736;28;20032;-83
2023/01/05 06:21:25;;;;;;;13.07;2.80;;;;;;;11.97;100.00;99084.78;5077931;28;20036;-83
2023/01/05 06:23:50;;;;;;;14.13;3.72;;;;;;;11.85;100.00;99082.78;5080220;28;20043;-84
2023/01/05 06:26:16;;;;;;;14.27;3.72;;;;;;;11.76;100.00;99102.38;5078917;28;20029;-83
2023/01/05 06:28:41;;;;;;;9.18;2.92;;;;;;;11.70;100.00;99090.88;5079778;28;20086;-83
2023/01/05 06:31:07;;;;;;;14.52;3.63;;;;;;;11.74;100.00;99096.53;5082554;28;20036;-84
2023/01/05 06:33:32;;;;;;;13.55;2.88;;;;;;;11.86;100.00;99094.09;5082773;28;20386;-83
2023/01/05 06:35:59;;;;;;;14.82;3.28;;;;;;;11.88;100.00;99081.56;5082423;28;20535;-84
2023/01/05 06:38:25;;;;;;;14.27;2.95;;;;;;;11.95;100.00;99087.66;5059143;28;20040;-85
2023/01/05 06:40:51;;;;;;;12.23;3.40;;;;;;;12.08;100.00;99096.56;5075648;28;20076;-82
2023/01/05 06:43:16;;;;;;;11.70;3.50;;;;;;;12.06;100.00;99094.16;5085091;28;20024;-83
2023/01/05 06:45:43;;;;;;;15.00;3.15;;;;;;;12.00;100.00;99081.78;5081917;28;20032;-84
2023/01/05 06:48:09;;;;;;;17.48;3.30;;;;;;;12.08;100.00;99081.59;5067006;28;20617;-84
2023/01/05 06:50:34;;;;;;;7.97;2.50;;;;;;;12.09;100.00;99099.00;5069401;28;20035;-83
2023/01/05 06:53:00;;;;;;;19.65;3.05;;;;;;;12.19;100.00;99097.81;5083819;28;20033;-83
2023/01/05 06:55:26;;;;;;;16.02;3.05;;;;;;;12.15;100.00;99086.88;5062716;28;20028;-83
2023/01/05 06:57:51;;;;;;;13.45;3.95;;;;;;;12.18;100.00;99090.88;5085563;28;20032;-83
2023/01/05 07:00:17;;;;;;;18.80;4.07;;;;;;;12.13;100.00;99094.94;5083648;28;20062;-84
2023/01/05 07:02:43;;;;;;;16.25;4.72;;;;;;;12.18;100.00;99106.69;5083585;28;20463;-85
2023/01/05 07:05:09;;;;;;;13.75;4.30;;;;;;;12.19;100.00;99089.91;5081487;28;20115;-86
2023/01/05 07:07:35;;;;;;;9.75;2.90;;;;;;;12.22;100.00;99094.75;5082290;28;20474;-85
2023/01/05 07:10:01;;;;;;;15.95;3.88;;;;;;;12.15;100.00;99100.00;5078706;28;20028;-85
2023/01/05 07:12:27;;;;;;;13.43;4.55;;;;;;;12.25;100.00;99095.13;5082765;28;20049;-86
2023/01/05 07:14:56;;;;;;;12.23;3.05;;;;;;;12.19;100.00;99092.53;5088467;28;20028;-86
2023/01/05 07:17:46;;;;;;;16.88;2.90;;;;;;;12.27;100.00;99106.25;5081595;28;20035;-86
2023/01/05 07:20:12;;;;;;;14.07;3.10;;;;;;;12.08;100.00;99084.22;5113156;27;20021;-86
2023/01/05 07:22:40;;;;;;;15.00;3.72;;;;;;;12.12;100.00;99089.91;5078264;28;20497;-85
2023/01/05 07:25:07;;;;;;;15.13;3.22;;;;;;;12.18;100.00;99101.41;5084694;28;20032;-86
2023/01/05 07:27:33;;;;;;;9.95;2.83;;;;;;;12.13;100.00;99088.88;5083825;28;20035;-86
2023/01/05 07:29:59;;;;;;;14.73;3.50;;;;;;;12.24;100.00;99111.16;5083469;28;20478;-86
2023/01/05 07:32:25;;;;;;;12.93;3.25;;;;;;;12.00;100.00;99105.47;5084353;28;20028;-85
2023/01/05 07:34:51;;;;;;;16.95;4.22;;;;;;;12.11;100.00;99096.97;5082858;28;21294;-86
2023/01/05 07:37:17;;;;;;;15.40;3.13;;;;;;;12.12;100.00;99103.84;5078994;28;20016;-86
2023/01/05 07:39:43;;;;;;;17.98;3.50;;;;;;;12.12;100.00;99098.59;5080455;28;20033;-88
2023/01/05 07:42:09;;;;;;;16.20;3.50;;;;;;;12.11;100.00;99093.56;5081739;28;20497;-87
2023/01/05 07:44:36;;;;;;;18.35;4.32;;;;;;;12.09;100.00;99080.59;5068792;28;20123;-87
2023/01/05 07:47:02;;;;;;;12.98;4.07;;;;;;;12.04;100.00;99096.19;5060954;28;20025;-86
2023/01/05 07:49:28;;;;;;;14.52;4.00;;;;;;;11.92;100.00;99097.75;5078654;28;20027;-85
2023/01/05 07:51:56;;;;;;;16.63;3.97;;;;;;;11.83;100.00;99074.28;5084010;28;20031;-87
2023/01/05 07:54:22;;;;;;;18.85;4.18;;;;;;;12.03;100.00;99094.56;5085015;28;20039;-87
2023/01/05 07:56:48;;;;;;;24.15;4.47;;;;;;;11.75;100.00;99082.34;5080572;28;20024;-88
2023/01/05 07:59:19;;;;;;;22.70;4.38;;;;;;;11.71;100.00;99083.78;5085848;28;20025;-89
2023/01/05 08:01:45;;;;;;;14.07;4.32;;;;;;;11.83;100.00;99091.88;5068352;28;20029;-87
2023/01/05 08:04:11;;;;;;;24.13;4.97;;;;;;;11.71;100.00;99075.88;5087255;28;20032;-86
2023/01/05 08:06:37;;;;;;;24.88;5.00;;;;;;;11.71;100.00;99076.72;5064702;28;20038;-86
2023/01/05 08:10:27;;;;;;;17.42;4.05;;;;;;;11.67;100.00;99074.69;5085529;28;20400;-83
2023/01/05 08:11:49;;;;;;;30.58;5.25;;;;;;;11.53;100.00;99082.53;5082458;28;20061;-82
2023/01/05 08:14:15;;;;;;;22.77;5.53;;;;;;;11.49;100.00;99069.97;5081510;28;20036;-85
2023/01/05 08:16:41;;;;;;;28.48;5.53;;;;;;;11.60;100.00;99089.66;5081384;28;20035;-84
2023/01/05 08:19:08;;;;;;;19.65;4.57;;;;;;;11.71;100.00;99081.16;5084676;28;20062;-83
2023/01/05 08:21:34;;;;;;;30.45;5.32;;;;;;;11.91;100.00;99098.75;5086810;28;20117;-84
2023/01/05 08:23:59;;;;;;;28.27;5.57;;;;;;;11.81;100.00;99093.91;5078150;28;20034;-84
2023/01/05 08:26:32;;;;;;;31.42;5.63;;;;;;;11.82;100.00;99092.88;5071005;28;20137;-85
2023/01/05 08:28:58;;;;;;;31.08;5.32;;;;;;;11.85;100.00;99098.56;5083055;28;20052;-84
2023/01/05 08:31:27;;;;;;;19.77;5.03;;;;;;;12.00;100.00;99094.94;5083366;28;20056;-85
2023/01/05 08:33:56;;;;;;;34.15;6.03;;;;;;;12.09;100.00;99093.75;5081031;28;20032;-81
2023/01/05 08:36:22;;;;;;;29.48;5.40;;;;;;;12.16;100.00;99092.91;5083979;28;20039;-85
2023/01/05 08:38:53;;;;;;;32.25;5.82;;;;;;;12.09;100.00;99095.56;5063369;28;20417;-83
2023/01/05 08:41:22;;;;;;;23.55;5.40;;;;;;;12.04;100.00;99074.31;5081183;28;20110;-82
2023/01/05 08:43:53;;;;;;;34.22;7.05;;;;;;;11.87;100.00;99082.56;5076534;28;20075;-83
2023/01/05 08:46:21;;;;;;;34.78;6.50;;;;;;;11.96;100.00;99085.81;5075453;28;20024;-83
2023/01/05 08:48:54;;;;;;;27.80;5.75;;;;;;;11.82;100.00;99071.84;5079858;28;20048;-83
2023/01/05 08:51:21;;;;;;;28.27;5.72;;;;;;;11.81;100.00;99067.59;5061996;28;20037;-82
2023/01/05 08:53:48;;;;;;;27.60;6.13;;;;;;;11.92;100.00;99084.59;5080871;28;20028;-83
2023/01/05 08:56:14;;;;;;;22.10;6.07;;;;;;;11.75;100.00;99082.34;5079989;28;20023;-82
2023/01/05 08:58:40;;;;;;;19.13;6.28;;;;;;;11.75;100.00;99081.56;5085424;28;20024;-83
2023/01/05 09:01:07;;;;;;;29.15;6.90;;;;;;;11.82;100.00;99077.94;5080559;28;20543;-81
2023/01/05 09:03:33;;;;;;;20.60;5.90;;;;;;;11.88;100.00;99078.13;5082705;28;20045;-81
2023/01/05 09:06:01;;;;;;;30.75;6.95;;;;;;;11.79;100.00;99073.09;5076441;28;20391;-83
2023/01/05 09:08:29;;;;;;;27.90;7.00;;;;;;;11.92;100.00;99076.72;5082296;28;20489;-84
2023/01/05 09:10:55;;;;;;;37.05;8.50;;;;;;;11.82;100.00;99054.25;5076760;28;20032;-87
2023/01/05 09:13:20;;;;;;;25.17;7.78;;;;;;;11.85;100.00;99082.78;5080831;28;20506;-87
2023/01/05 09:15:46;;;;;;;29.65;6.55;;;;;;;11.96;100.00;99083.19;5091004;28;20024;-84
2023/01/05 09:18:12;;;;;;;27.88;6.70;;;;;;;11.94;100.00;99064.97;5082180;28;20529;-85
2023/01/05 09:20:38;;;;;;;35.13;6.63;;;;;;;11.89;100.00;99061.34;5080296;28;20035;-85
2023/01/05 09:23:07;;;;;;;33.20;8.32;;;;;;;11.88;100.00;99070.25;5079185;28;20119;-85
2023/01/05 09:25:32;;;;;;;31.52;8.82;;;;;;;11.85;100.00;99056.47;5068269;28;20111;-87
2023/01/05 09:27:58;;;;;;;40.20;9.82;;;;;;;11.75;100.00;99074.47;5081098;28;20032;-79
2023/01/05 09:30:24;;;;;;;25.42;8.05;;;;;;;11.65;100.00;99058.28;5088378;28;20024;-80
2023/01/05 09:32:50;;;;;;;28.35;7.60;;;;;;;11.81;100.00;99060.53;5063734;28;20032;-84
2023/01/05 09:35:16;;;;;;;31.45;7.30;;;;;;;11.97;100.00;99055.84;5084513;28;20032;-84
2023/01/05 09:37:42;;;;;;;28.65;7.78;;;;;;;11.99;100.00;99046.75;5081755;28;20210;-85
2023/01/05 09:40:10;;;;;;;18.05;6.32;;;;;;;12.10;100.00;99055.88;5085631;28;20024;-80
2023/01/05 09:42:42;;;;;;;23.58;7.50;;;;;;;12.08;100.00;99052.66;5067064;28;20024;-84
2023/01/05 09:45:11;;;;;;;22.60;7.20;;;;;;;12.10;100.00;99055.09;5086111;28;20035;-84
2023/01/05 09:47:41;;;;;;;20.00;6.43;;;;;;;11.90;100.00;99039.28;5081360;28;20025;-84
2023/01/05 09:50:19;;;;;;;22.05;6.85;;;;;;;11.74;100.00;99032.63;5089034;28;20047;-87
2023/01/05 09:52:47;;;;;;;25.30;6.75;;;;;;;12.01;100.00;99025.56;5080642;28;20035;-84
2023/01/05 09:55:17;;;;;;;22.25;7.20;;;;;;;12.06;100.00;99031.00;5084084;28;20037;-85
2023/01/05 09:58:00;;;;;;;30.25;8.32;;;;;;;11.99;100.00;99045.97;5080009;28;20036;-86
2023/01/05 10:00:27;;;;;;;27.25;7.68;;;;;;;12.14;100.00;99041.31;5077176;28;20383;-85
2023/01/05 10:03:01;;;;;;;33.55;9.02;;;;;;;12.14;100.00;99041.31;5080854;28;20409;-84
2023/01/05 10:05:29;;;;;;;26.98;9.13;;;;;;;12.16;100.00;99037.66;5080034;28;20040;-86
2023/01/05 10:08:01;;;;;;;25.30;8.85;;;;;;;12.20;100.00;99033.63;5081434;28;20031;-84
2023/01/05 10:10:36;;;;;;;29.30;9.70;;;;;;;12.31;100.00;99042.72;5079773;28;20044;-84
2023/01/05 10:13:05;;;;;;;22.85;7.95;;;;;;;12.27;100.00;99029.94;5076359;28;20024;-84
2023/01/05 10:15:45;;;;;;;25.27;8.02;;;;;;;12.14;100.00;99043.94;5077484;28;20039;-83
2023/01/05 10:18:17;;;;;;;25.20;7.55;;;;;;;12.12;100.00;99022.28;5079813;28;20470;-84
2023/01/05 10:21:00;;;;;;;20.67;7.35;;;;;;;12.28;100.00;99028.13;5086509;28;20083;-86
2023/01/05 10:23:58;;;;;;;27.40;7.55;;;;;;;12.41;100.00;99032.56;5087619;28;20442;-85
2023/01/05 10:26:23;;;;;;;18.48;7.97;;;;;;;12.57;100.00;99039.19;5075630;28;20048;-85
2023/01/05 10:29:01;;;;;;;13.60;7.30;;;;;;;12.62;100.00;99049.94;5078570;28;20031;-85
2023/01/05 10:31:45;;;;;;;16.55;6.60;;;;;;;12.60;100.00;99036.16;5083180;28;20046;-85
2023/01/05 10:34:22;;;;;;;19.30;7.70;;;;;;;12.79;100.00;99039.72;5078223;28;20031;-86
2023/01/05 10:36:51;;;;;;;18.05;8.13;;;;;;;12.88;100.00;99042.94;5083537;28;20020;-84
2023/01/05 10:39:59;;;;;;;20.77;8.50;;;;;;;12.82;100.00;99043.78;5080024;28;20073;-84
2023/01/05 10:42:49;;;;;;;15.52;7.78;;;;;;;12.82;100.00;99039.31;5084531;28;20036;-85
2023/01/05 10:45:18;;;;;;;14.70;6.63;;;;;;;12.78;100.00;99018.88;5082678;28;20123;-84
2023/01/05 10:47:45;;;;;;;17.52;6.43;;;;;;;12.81;100.00;99029.78;5083977;28;20462;-84
2023/01/05 10:50:25;;;;;;;18.33;7.15;;;;;;;13.02;100.00;99033.13;5081103;28;20126;-84
2023/01/05 10:52:52;;;;;;;21.55;8.30;;;;;;;12.79;100.00;99026.56;5071185;28;20020;-85
2023/01/05 10:55:20;;;;;;;19.73;7.88;;;;;;;12.87;100.00;99038.69;5076311;28;20034;-85
2023/01/05 10:57:46;;;;;;;25.13;7.97;;;;;;;13.03;100.00;99024.22;5079708;28;20028;-86
2023/01/05 11:00:19;;;;;;;21.27;7.80;;;;;;;13.21;100.00;99025.34;5084920;28;20516;-85
2023/01/05 11:03:01;;;;;;;23.40;7.68;;;;;;;13.21;100.00;99020.88;5081767;28;20040;-86
2023/01/05 11:05:41;;;;;;;22.88;8.05;;;;;;;13.26;100.00;99023.69;5076965;28;20135;-86
2023/01/05 11:08:17;;;;;;;18.85;6.95;;;;;;;13.48;100.00;99026.00;5083548;28;20036;-88
2023/01/05 11:10:53;;;;;;;18.58;8.13;;;;;;;13.27;100.00;99012.13;5086280;28;20115;-87
2023/01/05 11:13:32;;;;;;;19.45;7.30;;;;;;;13.43;100.00;99021.34;5080929;28;20039;-88
2023/01/05 11:16:05;;;;;;;20.20;7.90;;;;;;;13.47;100.00;99013.03;5098973;28;20516;-88
2023/01/05 11:18:35;;;;;;;17.63;9.20;;;;;;;13.47;100.00;99002.50;5084789;28;20035;-86
2023/01/05 11:21:38;;;;;;;25.40;9.75;;;;;;;13.65;100.00;99007.00;5085628;28;20028;-87
2023/01/05 11:24:26;;;;;;;26.02;10.40;;;;;;;13.71;100.00;99019.34;5059250;28;20044;-86
2023/01/05 11:26:57;;;;;;;28.00;8.68;;;;;;;13.73;100.00;99012.00;5081244;28;20073;-82
2023/01/05 11:29:24;;;;;;;25.98;9.02;;;;;;;13.76;100.00;99006.31;5080817;28;20474;-82
2023/01/05 11:32:03;;;;;;;26.10;10.43;;;;;;;13.60;100.00;98996.31;5082678;28;20093;-84
2023/01/05 11:34:41;;;;;;;25.25;9.30;;;;;;;13.84;100.00;99010.50;5083183;28;20161;-84
2023/01/05 11:37:25;;;;;;;25.40;10.20;;;;;;;13.96;100.00;98995.56;5087488;28;20330;-84
2023/01/05 11:40:01;;;;;;;29.75;10.20;;;;;;;13.67;100.00;99002.31;5068864;28;20036;-86
2023/01/05 11:42:31;;;;;;;27.50;9.85;;;;;;;13.90;100.00;98995.63;5081931;28;20127;-83
2023/01/05 11:45:19;;;;;;;27.00;10.25;;;;;;;14.02;100.00;98998.38;5086545;28;20027;-84
2023/01/05 11:48:07;;;;;;;23.55;10.13;;;;;;;14.01;100.00;98979.09;5080348;28;20036;-84
2023/01/05 11:50:41;;;;;;;27.75;10.57;;;;;;;14.10;100.00;98984.91;5079424;28;20043;-85
2023/01/05 11:53:20;;;;;;;25.05;9.02;;;;;;;14.11;100.00;98960.91;5077677;28;20041;-86
2023/01/05 11:55:59;;;;;;;21.33;8.65;;;;;;;14.29;100.00;98977.78;5082314;28;20031;-85
2023/01/05 11:58:29;;;;;;;27.88;8.75;;;;;;;14.38;100.00;98968.56;5080635;28;20039;-85